Time;durP1;ratioP1;P1;durP2;ratioP2;P2;SDS_P1;SDS_P2;PMS_P1;PMS_P2;Temp;Humidity;BMP_temperature;BMP_pressure;BME280_temperature;BME280_humidity;BME280_pressure;Samples;Min_cycle;Max_cycle;Signal;HPM_P1;HPM_P2
2021/04/08 00:00:05;;;;;;;7.17;6.40;;;;;;;2.85;68.15;97157.47;5013245;28;20484;-68
2021/04/08 00:02:31;;;;;;;11.00;6.80;;;;;;;2.52;70.08;97155.38;5012328;28;20576;-67
2021/04/08 00:04:56;;;;;;;9.37;7.40;;;;;;;2.35;71.33;97154.75;5012720;28;20443;-67
2021/04/08 00:07:22;;;;;;;8.73;7.30;;;;;;;2.59;70.65;97169.56;5012669;28;20203;-68
2021/04/08 00:09:47;;;;;;;14.37;7.20;;;;;;;2.41;71.80;97169.03;5021070;28;20266;-68
2021/04/08 00:12:13;;;;;;;15.70;8.20;;;;;;;2.57;71.98;97177.44;5013284;28;20282;-69
2021/04/08 00:14:39;;;;;;;11.77;7.93;;;;;;;2.34;72.99;97180.72;5012894;28;20192;-69
2021/04/08 00:17:04;;;;;;;10.20;7.90;;;;;;;2.51;72.69;97183.03;5011783;28;20662;-67
2021/04/08 00:19:30;;;;;;;11.40;7.90;;;;;;;2.35;73.45;97166.88;5018886;28;20253;-68
2021/04/08 00:21:56;;;;;;;9.63;7.70;;;;;;;2.74;72.35;97159.97;5012082;28;20212;-67
2021/04/08 00:24:22;;;;;;;13.40;8.37;;;;;;;2.43;73.32;97155.09;5012950;28;20188;-68
2021/04/08 00:26:47;;;;;;;15.17;8.10;;;;;;;2.40;73.77;97159.63;5012404;28;20188;-68
2021/04/08 00:29:13;;;;;;;18.60;9.00;;;;;;;2.23;74.06;97153.81;5021151;28;20508;-68
2021/04/08 00:31:39;;;;;;;13.97;8.57;;;;;;;2.51;73.20;97156.31;5012567;28;20231;-67
2021/04/08 00:34:04;;;;;;;11.07;8.10;;;;;;;2.55;72.21;97163.78;5011486;28;20215;-70
2021/04/08 00:36:30;;;;;;;13.50;7.67;;;;;;;2.41;72.78;97175.06;5011986;28;20181;-67
2021/04/08 00:38:55;;;;;;;10.50;7.13;;;;;;;2.77;72.34;97159.75;5012435;28;20190;-68
2021/04/08 00:41:21;;;;;;;14.93;7.77;;;;;;;2.29;73.96;97158.56;5011820;28;20216;-68
2021/04/08 00:43:47;;;;;;;11.30;8.80;;;;;;;2.46;72.11;97148.88;5026101;28;20218;-68
2021/04/08 00:46:12;;;;;;;19.43;8.60;;;;;;;2.19;73.18;97157.53;5020992;28;20184;-67
2021/04/08 00:48:38;;;;;;;9.63;7.40;;;;;;;2.39;72.16;97152.81;5015264;28;20205;-67
2021/04/08 00:51:04;;;;;;;9.33;7.83;;;;;;;2.69;70.08;97149.91;5009348;28;20180;-67
2021/04/08 00:53:31;;;;;;;11.13;6.70;;;;;;;2.68;69.87;97152.59;5018795;28;20424;-68
2021/04/08 00:55:57;;;;;;;15.33;6.67;;;;;;;2.80;68.79;97156.94;5026934;28;20188;-68
2021/04/08 00:58:23;;;;;;;8.67;7.40;;;;;;;2.69;69.22;97164.59;5027121;28;20497;-68
2021/04/08 01:00:49;;;;;;;12.93;6.90;;;;;;;2.56;69.79;97162.84;5010422;28;20181;-68
2021/04/08 01:03:20;;;;;;;14.43;7.67;;;;;;;2.97;69.09;97162.72;5011606;28;20250;-68
2021/04/08 01:05:46;;;;;;;11.73;7.60;;;;;;;2.72;70.14;97164.41;5011685;28;20442;-68
2021/04/08 01:08:12;;;;;;;11.80;8.57;;;;;;;2.74;70.31;97162.53;5027330;28;20929;-67
2021/04/08 01:10:40;;;;;;;12.87;9.30;;;;;;;2.72;69.48;97161.81;5011513;28;20534;-68
2021/04/08 01:13:08;;;;;;;19.20;9.47;;;;;;;2.23;70.71;97179.69;5011591;28;20516;-67
2021/04/08 01:15:34;;;;;;;13.37;8.90;;;;;;;3.06;68.75;97177.63;4990606;28;20432;-68
2021/04/08 01:18:31;;;;;;;19.20;9.13;;;;;;;2.87;69.02;97172.88;5013403;28;20518;-68
2021/04/08 01:21:08;;;;;;;13.70;8.27;;;;;;;2.88;69.24;97174.53;5011003;28;20419;-67
2021/04/08 01:23:34;;;;;;;12.23;8.30;;;;;;;2.49;69.20;97177.13;5016968;28;20479;-67
2021/04/08 01:26:11;;;;;;;12.50;8.27;;;;;;;2.64;69.14;97182.22;5014218;28;20832;-67
2021/04/08 01:28:39;;;;;;;12.93;8.63;;;;;;;2.59;69.59;97180.75;5011511;28;20286;-67
2021/04/08 01:31:07;;;;;;;12.87;8.20;;;;;;;2.50;69.44;97180.53;5010055;28;20423;-67
2021/04/08 01:33:48;;;;;;;12.10;8.23;;;;;;;2.79;68.08;97175.97;5011842;28;20439;-68
2021/04/08 01:36:19;;;;;;;12.20;8.17;;;;;;;2.92;67.87;97178.56;5010159;28;20430;-67
2021/04/08 01:38:48;;;;;;;17.30;8.50;;;;;;;2.91;67.37;97179.50;5026714;28;20771;-67
2021/04/08 01:41:17;;;;;;;9.23;8.00;;;;;;;3.06;67.12;97185.38;5010672;28;20477;-68
2021/04/08 01:43:45;;;;;;;9.80;7.27;;;;;;;3.29;65.92;97188.13;5026320;28;20521;-67
2021/04/08 01:46:11;;;;;;;10.93;7.70;;;;;;;3.29;65.98;97185.53;5017797;28;20945;-69
2021/04/08 01:48:37;;;;;;;11.70;7.47;;;;;;;3.21;65.07;97192.09;5009884;28;20466;-68
2021/04/08 01:51:05;;;;;;;9.03;6.80;;;;;;;2.83;65.99;97190.38;5010877;28;20424;-68
2021/04/08 01:53:32;;;;;;;8.93;6.37;;;;;;;2.94;64.77;97188.81;5011447;28;20905;-68
2021/04/08 01:55:59;;;;;;;7.60;5.93;;;;;;;3.02;63.89;97195.13;5010044;28;20917;-67
2021/04/08 01:58:25;;;;;;;9.90;6.17;;;;;;;3.22;62.79;97193.75;5010876;28;20475;-68
2021/04/08 02:00:52;;;;;;;6.00;5.40;;;;;;;3.03;63.73;97201.97;5026367;28;20510;-68
2021/04/08 02:03:18;;;;;;;8.47;5.50;;;;;;;3.04;63.48;97210.56;5022146;28;20473;-68
2021/04/08 02:05:44;;;;;;;7.70;5.60;;;;;;;3.04;62.95;97205.38;5034752;28;20419;-68
2021/04/08 02:08:11;;;;;;;7.10;5.80;;;;;;;3.11;63.17;97216.16;5027399;28;20196;-67
2021/04/08 02:10:38;;;;;;;8.13;5.73;;;;;;;3.13;62.93;97214.28;5010911;28;20462;-68
2021/04/08 02:13:05;;;;;;;8.27;5.33;;;;;;;3.27;63.18;97210.75;5010910;28;20447;-68
2021/04/08 02:15:31;;;;;;;8.60;5.77;;;;;;;3.18;63.21;97217.41;5011365;28;21088;-68
2021/04/08 02:17:59;;;;;;;5.83;5.23;;;;;;;2.62;64.38;97218.53;5017108;28;20426;-69
2021/04/08 02:20:29;;;;;;;6.47;4.93;;;;;;;2.73;64.41;97225.59;5010927;28;20428;-68
2021/04/08 02:22:57;;;;;;;9.70;4.53;;;;;;;2.89;63.80;97228.81;5025943;28;20474;-67
2021/04/08 02:25:24;;;;;;;4.87;4.13;;;;;;;3.01;63.75;97221.16;5010701;28;20419;-68
2021/04/08 02:27:50;;;;;;;7.10;4.40;;;;;;;2.36;65.07;97231.44;5011217;28;20463;-67
2021/04/08 02:30:16;;;;;;;10.13;4.67;;;;;;;2.50;64.64;97227.09;5013912;28;20429;-67
2021/04/08 02:32:42;;;;;;;6.93;4.30;;;;;;;2.91;63.81;97226.13;5023381;28;20564;-68
2021/04/08 02:35:16;;;;;;;6.03;4.53;;;;;;;2.82;63.54;97222.38;5027776;28;20423;-69
2021/04/08 02:37:42;;;;;;;9.10;4.37;;;;;;;3.17;62.72;97221.72;5032004;28;20177;-68
2021/04/08 02:40:10;;;;;;;6.93;4.30;;;;;;;3.50;61.81;97216.91;5015176;28;20430;-68
2021/04/08 02:42:35;;;;;;;8.80;4.33;;;;;;;3.29;62.20;97219.22;5025097;28;20478;-68
2021/04/08 02:45:03;;;;;;;6.20;3.93;;;;;;;2.99;62.34;97217.81;5025369;28;20921;-67
2021/04/08 02:47:28;;;;;;;5.53;4.43;;;;;;;3.03;62.25;97234.78;5014281;28;20749;-68
2021/04/08 02:49:54;;;;;;;5.07;3.80;;;;;;;3.11;61.55;97222.16;5008768;28;20426;-68
2021/04/08 02:52:22;;;;;;;5.33;3.80;;;;;;;3.05;61.25;97233.78;5013930;28;20200;-67
2021/04/08 02:54:54;;;;;;;4.53;3.60;;;;;;;2.99;61.74;97233.38;5013151;28;20215;-69
2021/04/08 02:58:09;;;;;;;7.30;3.60;;;;;;;2.76;62.53;97239.16;5013089;28;20420;-68
2021/04/08 03:00:40;;;;;;;4.17;3.77;;;;;;;3.19;61.42;97235.41;5010964;28;20426;-69
2021/04/08 03:03:10;;;;;;;7.33;4.03;;;;;;;2.96;61.90;97246.50;5013925;28;20474;-68
2021/04/08 03:05:40;;;;;;;6.67;3.80;;;;;;;2.69;62.80;97252.59;5013936;28;20975;-67
2021/04/08 03:08:08;;;;;;;8.30;3.50;;;;;;;2.94;62.30;97250.97;5016056;28;20454;-68
2021/04/08 03:10:36;;;;;;;5.73;4.13;;;;;;;3.25;61.33;97243.72;4993050;28;20516;-67
2021/04/08 03:13:02;;;;;;;4.70;3.70;;;;;;;3.21;61.48;97249.09;4993660;28;20961;-68
2021/04/08 03:15:32;;;;;;;7.60;3.83;;;;;;;3.44;61.35;97244.09;5012462;28;20431;-67
2021/04/08 03:17:58;;;;;;;4.57;3.80;;;;;;;3.36;60.68;97241.19;5031669;28;20549;-69
2021/04/08 03:20:25;;;;;;;13.10;4.37;;;;;;;3.36;60.52;97256.75;5004115;28;20439;-68
2021/04/08 03:22:52;;;;;;;7.27;4.07;;;;;;;2.99;62.16;97259.25;5011494;28;20450;-68
2021/04/08 03:25:19;;;;;;;7.07;4.50;;;;;;;3.28;61.42;97251.25;5011933;28;20451;-68
2021/04/08 03:27:45;;;;;;;9.80;4.23;;;;;;;3.06;61.79;97255.31;5011857;28;20484;-68
2021/04/08 03:30:12;;;;;;;6.53;4.20;;;;;;;2.99;62.39;97254.91;5011354;28;20439;-67
2021/04/08 03:32:38;;;;;;;12.10;4.20;;;;;;;2.74;63.07;97260.91;5013347;28;20451;-68
2021/04/08 03:35:06;;;;;;;9.33;4.13;;;;;;;2.84;62.86;97261.94;4995147;28;20450;-68
2021/04/08 03:37:31;;;;;;;9.07;4.07;;;;;;;2.96;62.61;97265.44;5013883;28;20536;-68
2021/04/08 03:39:57;;;;;;;10.37;4.10;;;;;;;3.03;62.63;97271.88;5012710;28;20538;-67
2021/04/08 03:42:23;;;;;;;5.50;3.80;;;;;;;3.07;62.46;97272.50;5024135;28;20245;-68
2021/04/08 03:44:50;;;;;;;7.07;4.63;;;;;;;3.17;62.03;97265.75;5032850;28;20665;-68
2021/04/08 03:47:16;;;;;;;6.30;4.33;;;;;;;3.13;62.48;97266.94;5012563;28;20542;-68
2021/04/08 03:49:43;;;;;;;9.40;4.43;;;;;;;3.47;62.29;97264.59;5012160;28;20435;-67
2021/04/08 03:52:11;;;;;;;7.20;4.03;;;;;;;3.34;62.28;97268.97;5009498;28;20451;-68
2021/04/08 03:54:36;;;;;;;18.30;6.00;;;;;;;3.61;61.52;97266.22;5012539;28;20479;-68
2021/04/08 03:57:05;;;;;;;58.27;11.23;;;;;;;3.42;62.15;97265.84;5012453;28;20839;-67
2021/04/08 03:59:31;;;;;;;8.43;4.20;;;;;;;3.42;61.86;97271.03;5027572;28;20668;-68
2021/04/08 04:01:57;;;;;;;7.80;4.00;;;;;;;3.37;62.00;97268.78;5012126;28;20586;-68
2021/04/08 04:04:23;;;;;;;10.40;4.43;;;;;;;3.31;62.23;97279.53;5012717;28;20204;-67
2021/04/08 04:06:52;;;;;;;10.90;4.53;;;;;;;3.48;61.61;97276.63;5012771;28;20450;-68
2021/04/08 04:09:18;;;;;;;9.67;4.10;;;;;;;3.61;61.73;97281.78;5027892;28;20594;-69
2021/04/08 04:11:47;;;;;;;4.33;3.73;;;;;;;3.53;61.50;97289.28;5012470;28;20439;-67
2021/04/08 04:14:16;;;;;;;6.77;4.50;;;;;;;3.36;62.21;97291.25;5023197;28;20435;-68
2021/04/08 04:16:45;;;;;;;6.97;4.40;;;;;;;3.41;62.61;97297.88;5006107;28;20522;-69
2021/04/08 04:19:11;;;;;;;7.20;4.07;;;;;;;3.62;61.42;97287.81;5018419;28;20506;-67
2021/04/08 04:21:37;;;;;;;5.33;3.37;;;;;;;3.52;61.32;97288.44;5011517;28;20455;-68
2021/04/08 04:24:04;;;;;;;8.20;3.43;;;;;;;3.62;60.83;97287.81;5012715;28;20445;-68
2021/04/08 04:26:30;;;;;;;6.27;3.73;;;;;;;3.47;61.60;97300.88;5012318;28;20427;-68
2021/04/08 04:28:55;;;;;;;3.50;3.10;;;;;;;3.68;60.37;97290.81;5012593;28;20591;-67
2021/04/08 04:31:21;;;;;;;8.13;3.63;;;;;;;2.88;62.15;97293.63;5021982;28;20681;-67
2021/04/08 04:33:47;;;;;;;8.13;3.80;;;;;;;3.24;61.55;97299.84;5028182;28;20203;-68
2021/04/08 04:36:13;;;;;;;6.00;3.73;;;;;;;3.34;61.69;97305.25;5012171;28;20484;-67
2021/04/08 04:38:38;;;;;;;4.60;3.93;;;;;;;3.09;62.19;97306.91;5012781;28;20188;-68
2021/04/08 04:41:04;;;;;;;5.00;3.77;;;;;;;3.09;62.02;97306.09;5012284;28;20196;-69
2021/04/08 04:43:30;;;;;;;6.70;3.90;;;;;;;3.17;61.82;97312.38;5025909;28;20277;-68
2021/04/08 04:45:56;;;;;;;6.53;3.33;;;;;;;3.39;60.61;97313.56;5021617;28;20199;-67
2021/04/08 04:48:21;;;;;;;5.53;3.83;;;;;;;3.36;60.70;97311.16;5011352;28;20781;-68
2021/04/08 04:50:48;;;;;;;4.73;4.17;;;;;;;2.90;61.47;97318.47;5007398;28;20184;-66
2021/04/08 04:53:14;;;;;;;5.70;3.87;;;;;;;3.18;60.62;97319.22;5021271;28;20209;-68
2021/04/08 04:55:40;;;;;;;6.67;4.27;;;;;;;3.32;60.13;97320.91;5012298;28;20435;-68
2021/04/08 04:58:05;;;;;;;6.30;3.80;;;;;;;3.05;59.96;97326.16;5012431;28;20924;-68
2021/04/08 05:00:31;;;;;;;9.60;4.70;;;;;;;3.01;60.51;97327.31;5012166;28;20188;-68
2021/04/08 05:02:57;;;;;;;7.43;4.17;;;;;;;3.33;59.32;97332.09;5011190;28;20292;-68
2021/04/08 05:05:22;;;;;;;7.73;4.50;;;;;;;3.25;59.03;97331.78;5016512;28;20210;-67
2021/04/08 05:07:48;;;;;;;5.00;3.67;;;;;;;3.09;59.36;97343.16;5018018;28;20200;-67
2021/04/08 05:10:13;;;;;;;7.90;4.23;;;;;;;3.46;58.41;97337.28;5012713;28;20658;-69
2021/04/08 05:12:39;;;;;;;8.53;4.63;;;;;;;3.05;59.49;97341.69;5011745;28;20200;-67
2021/04/08 05:15:06;;;;;;;7.80;4.40;;;;;;;3.27;58.92;97337.69;5027430;28;20215;-67
2021/04/08 05:17:32;;;;;;;19.00;4.20;;;;;;;3.27;59.01;97340.28;5015325;28;20508;-67
2021/04/08 05:19:58;;;;;;;15.50;3.90;;;;;;;3.44;58.05;97342.53;5011039;28;20439;-68
2021/04/08 05:22:24;;;;;;;8.37;4.33;;;;;;;3.65;58.02;97340.25;5012187;28;20207;-67
2021/04/08 05:24:49;;;;;;;5.60;3.33;;;;;;;3.69;57.50;97335.69;5027788;28;20427;-70
2021/04/08 05:27:15;;;;;;;5.90;3.47;;;;;;;3.58;57.95;97338.19;5012292;28;20427;-69
2021/04/08 05:29:41;;;;;;;5.50;3.27;;;;;;;3.47;58.02;97344.94;5011954;28;20275;-69
2021/04/08 05:32:07;;;;;;;7.70;3.77;;;;;;;3.76;57.28;97351.66;5028788;28;20217;-68
2021/04/08 05:34:32;;;;;;;4.53;3.53;;;;;;;3.82;57.52;97346.88;5026417;28;20191;-69
2021/04/08 05:36:58;;;;;;;6.50;3.90;;;;;;;3.62;57.38;97356.00;5032268;28;20948;-67
2021/04/08 05:39:23;;;;;;;7.00;3.47;;;;;;;3.67;57.51;97359.13;5032235;28;20298;-67
2021/04/08 05:41:49;;;;;;;6.70;3.37;;;;;;;3.28;57.67;97362.63;5031570;28;20215;-69
2021/04/08 05:44:15;;;;;;;9.63;4.03;;;;;;;3.66;56.98;97360.06;5012318;28;20579;-67
2021/04/08 05:46:40;;;;;;;9.20;4.53;;;;;;;3.51;57.49;97359.34;5030732;28;20250;-70
2021/04/08 05:49:06;;;;;;;11.30;4.33;;;;;;;3.30;58.18;97363.38;5026017;28;20299;-67
2021/04/08 05:51:32;;;;;;;12.27;3.80;;;;;;;3.21;57.27;97368.25;5028300;28;20216;-68
2021/04/08 05:53:57;;;;;;;4.90;3.00;;;;;;;3.60;56.58;97370.03;5028695;28;20215;-68
2021/04/08 05:56:23;;;;;;;8.17;3.67;;;;;;;3.53;56.53;97370.41;5031806;28;20192;-67
2021/04/08 05:58:48;;;;;;;7.20;4.80;;;;;;;3.46;57.11;97382.16;5032486;28;20179;-69
2021/04/08 06:01:14;;;;;;;6.20;4.87;;;;;;;3.29;57.87;97377.25;5014880;28;20277;-67
2021/04/08 06:03:40;;;;;;;8.27;3.80;;;;;;;3.29;57.87;97380.69;5030128;28;20576;-68
2021/04/08 06:06:05;;;;;;;18.93;5.33;;;;;;;3.56;57.18;97373.75;5031614;28;20306;-68
2021/04/08 06:08:31;;;;;;;6.23;3.80;;;;;;;3.70;56.93;97378.81;5031410;28;20223;-68
2021/04/08 06:10:56;;;;;;;11.53;3.50;;;;;;;3.77;56.87;97382.69;5030985;28;20279;-67
2021/04/08 06:13:22;;;;;;;6.23;4.07;;;;;;;3.72;56.78;97384.75;5031764;28;20195;-67
2021/04/08 06:15:48;;;;;;;7.73;3.97;;;;;;;3.97;56.24;97385.63;5033745;28;20556;-68
2021/04/08 06:18:13;;;;;;;11.87;4.27;;;;;;;3.88;55.99;97378.50;5029686;28;20629;-69
2021/04/08 06:20:39;;;;;;;16.90;6.33;;;;;;;4.31;56.03;97380.69;5035381;28;20709;-69
2021/04/08 06:23:05;;;;;;;8.93;5.40;;;;;;;4.02;55.61;97380.97;5035473;28;20280;-68
2021/04/08 06:25:32;;;;;;;9.27;5.17;;;;;;;4.43;54.22;97386.78;5035372;28;20647;-69
2021/04/08 06:27:58;;;;;;;7.10;5.17;;;;;;;4.66;54.23;97386.88;5034720;28;20511;-70
2021/04/08 06:30:24;;;;;;;11.63;4.57;;;;;;;4.64;52.75;97386.16;5029085;28;20537;-69
2021/04/08 06:32:52;;;;;;;10.10;4.77;;;;;;;4.29;54.42;97385.97;5039155;28;20208;-69
2021/04/08 06:35:18;;;;;;;6.17;4.40;;;;;;;4.72;53.12;97387.28;5033684;28;20271;-68
2021/04/08 06:37:44;;;;;;;11.80;5.10;;;;;;;3.98;55.10;97403.69;5034058;28;20428;-70
2021/04/08 06:40:10;;;;;;;9.30;5.27;;;;;;;4.16;54.93;97395.56;5038776;28;20426;-69
2021/04/08 06:42:36;;;;;;;8.40;4.70;;;;;;;4.14;54.88;97397.44;5032398;28;20207;-70
2021/04/08 06:45:05;;;;;;;16.53;5.80;;;;;;;3.97;54.75;97403.78;5018979;28;20197;-69
2021/04/08 06:47:35;;;;;;;6.17;4.40;;;;;;;4.19;53.79;97395.34;5037305;28;20206;-70
2021/04/08 06:50:06;;;;;;;8.93;5.00;;;;;;;4.05;55.15;97398.91;5054996;28;20484;-71
2021/04/08 06:52:32;;;;;;;8.57;5.50;;;;;;;4.14;53.00;97397.44;5054061;28;20472;-70
2021/04/08 06:54:58;;;;;;;14.13;6.50;;;;;;;4.34;52.89;97397.81;5055800;28;20526;-69
2021/04/08 06:57:24;;;;;;;21.40;8.93;;;;;;;4.14;53.28;97398.28;5037194;28;20433;-69
2021/04/08 06:59:50;;;;;;;39.83;17.73;;;;;;;4.25;52.62;97405.28;5032818;28;20423;-69
2021/04/08 07:02:18;;;;;;;35.10;15.90;;;;;;;4.51;52.74;97400.03;5037002;28;20204;-68
2021/04/08 07:04:44;;;;;;;16.03;8.63;;;;;;;4.38;52.50;97405.28;5037303;28;20434;-70
2021/04/08 07:07:10;;;;;;;10.50;7.30;;;;;;;4.38;52.54;97407.88;5030927;28;20426;-69
2021/04/08 07:09:36;;;;;;;8.27;6.40;;;;;;;4.68;51.79;97401.41;5040803;28;20419;-69
2021/04/08 07:12:02;;;;;;;14.67;7.37;;;;;;;5.10;51.98;97407.97;5041663;28;20234;-68
2021/04/08 07:14:28;;;;;;;13.20;7.77;;;;;;;5.30;50.85;97407.31;5035737;28;20321;-69
2021/04/08 07:16:54;;;;;;;9.67;7.40;;;;;;;4.98;50.43;97413.13;5035387;28;20921;-69
2021/04/08 07:19:20;;;;;;;8.30;6.23;;;;;;;4.81;51.09;97409.16;5034899;28;20406;-71
2021/04/08 07:21:46;;;;;;;10.67;5.10;;;;;;;4.42;51.37;97414.47;5027050;28;20203;-68
2021/04/08 07:24:12;;;;;;;13.80;5.20;;;;;;;4.58;50.88;97421.19;5034838;28;20454;-69
2021/04/08 07:26:53;;;;;;;8.77;5.23;;;;;;;4.98;50.20;97415.72;5033491;28;20423;-69
2021/04/08 07:29:22;;;;;;;9.60;4.47;;;;;;;5.09;49.87;97420.16;5031495;28;20219;-69
2021/04/08 07:31:48;;;;;;;11.47;4.67;;;;;;;4.51;51.19;97430.34;5020547;28;20523;-68
2021/04/08 07:34:31;;;;;;;7.23;3.93;;;;;;;4.89;50.63;97425.00;5016279;28;20416;-69
2021/04/08 07:36:57;;;;;;;11.63;4.60;;;;;;;4.55;51.34;97432.63;5027518;28;20211;-68
2021/04/08 07:39:22;;;;;;;7.40;4.33;;;;;;;4.87;51.57;97426.88;5025597;28;20442;-69
2021/04/08 07:41:59;;;;;;;8.70;4.47;;;;;;;4.76;49.56;97430.28;5026862;28;20290;-71
2021/04/08 07:44:25;;;;;;;6.30;4.30;;;;;;;5.19;49.98;97441.06;5006453;28;20176;-70
2021/04/08 07:46:51;;;;;;;8.47;4.80;;;;;;;4.57;51.36;97440.28;5023936;28;21117;-67
2021/04/08 07:49:32;;;;;;;7.03;5.00;;;;;;;4.57;50.76;97441.13;5018165;28;20218;-69
2021/04/08 07:52:14;;;;;;;9.23;5.57;;;;;;;5.31;49.52;97436.75;5027107;28;20670;-68
2021/04/08 07:54:41;;;;;;;14.10;5.20;;;;;;;5.28;49.70;97444.75;5028304;28;20473;-67
2021/04/08 07:57:06;;;;;;;8.70;5.20;;;;;;;5.68;48.55;97447.81;5013730;28;20466;-68
2021/04/08 07:59:32;;;;;;;6.50;5.47;;;;;;;5.25;48.92;97448.44;5029016;28;20447;-68
2021/04/08 08:02:03;;;;;;;14.77;5.47;;;;;;;5.22;50.19;97448.63;5028443;28;20761;-68
2021/04/08 08:04:30;;;;;;;11.00;5.17;;;;;;;5.93;48.04;97447.75;5031637;28;20250;-71
2021/04/08 08:06:56;;;;;;;8.90;4.87;;;;;;;5.97;46.78;97446.56;5031552;28;20450;-68
2021/04/08 08:09:26;;;;;;;13.80;5.10;;;;;;;5.88;47.57;97450.69;5032802;28;20765;-68
2021/04/08 08:11:53;;;;;;;10.13;5.37;;;;;;;6.19;46.80;97453.56;5032374;28;20954;-69
2021/04/08 08:14:40;;;;;;;9.00;5.87;;;;;;;5.73;45.93;97451.84;5032793;28;20428;-67
2021/04/08 08:17:14;;;;;;;9.30;5.67;;;;;;;5.50;48.24;97451.81;5033001;28;20762;-69
2021/04/08 08:19:43;;;;;;;8.90;5.20;;;;;;;5.01;48.39;97451.03;5022767;28;20423;-72
2021/04/08 08:22:17;;;;;;;8.13;4.80;;;;;;;5.64;47.22;97449.00;5024582;28;20483;-69
2021/04/08 08:24:59;;;;;;;21.37;5.03;;;;;;;5.74;47.24;97448.31;5031609;28;20492;-71
2021/04/08 08:27:57;;;;;;;9.83;4.90;;;;;;;5.89;47.01;97449.75;5032939;28;20769;-69
2021/04/08 08:30:32;;;;;;;8.47;5.70;;;;;;;5.70;45.10;97455.50;4956757;28;20484;-70
2021/04/08 08:33:04;;;;;;;10.03;5.93;;;;;;;6.18;44.64;97444.09;4966614;28;21049;-70
2021/04/08 08:35:30;;;;;;;11.43;6.50;;;;;;;5.77;44.63;97453.28;4972571;28;20475;-70
2021/04/08 08:37:56;;;;;;;17.43;6.57;;;;;;;6.03;45.96;97443.50;4971090;28;20511;-68
2021/04/08 08:40:22;;;;;;;8.20;5.30;;;;;;;6.76;43.76;97443.91;4955514;28;20333;-68
2021/04/08 08:42:51;;;;;;;11.93;6.00;;;;;;;6.15;43.45;97446.97;4963811;28;20454;-71
2021/04/08 08:45:20;;;;;;;7.50;5.97;;;;;;;5.77;43.26;97453.28;4919577;28;20433;-70
2021/04/08 08:47:46;;;;;;;11.70;5.23;;;;;;;5.69;43.08;97453.84;4944953;28;20926;-68
2021/04/08 08:50:15;;;;;;;10.67;6.03;;;;;;;5.71;43.26;97451.97;4946667;28;20426;-70
2021/04/08 08:52:43;;;;;;;11.50;5.23;;;;;;;5.96;43.08;97448.31;4944086;28;20906;-71
2021/04/08 08:55:14;;;;;;;14.43;5.63;;;;;;;5.58;44.20;97453.84;4954768;28;20850;-72
2021/04/08 08:57:40;;;;;;;9.37;5.60;;;;;;;5.70;43.75;97450.31;4965234;28;20485;-70
2021/04/08 09:00:10;;;;;;;20.53;7.00;;;;;;;5.93;43.32;97442.53;4947134;28;20427;-70
2021/04/08 09:02:37;;;;;;;13.50;6.40;;;;;;;6.33;42.55;97442.09;4936557;28;20453;-71
2021/04/08 09:05:04;;;;;;;12.33;5.60;;;;;;;7.00;41.90;97444.66;4976346;28;20496;-69
2021/04/08 09:07:30;;;;;;;7.40;5.07;;;;;;;7.16;40.27;97439.88;5023870;28;20434;-71
2021/04/08 09:10:00;;;;;;;9.50;4.77;;;;;;;6.78;40.93;97429.94;5041221;28;20419;-68
2021/04/08 09:12:26;;;;;;;5.37;4.87;;;;;;;7.64;39.58;97438.53;5047318;28;20522;-70
2021/04/08 09:14:55;;;;;;;8.70;4.73;;;;;;;7.58;39.42;97439.06;5052596;28;20429;-70
2021/04/08 09:17:37;;;;;;;13.63;5.67;;;;;;;7.44;39.40;97432.38;5023621;28;20419;-69
2021/04/08 09:20:07;;;;;;;17.80;6.47;;;;;;;6.70;41.36;97433.13;5032265;28;20431;-69
2021/04/08 09:22:33;;;;;;;14.67;6.27;;;;;;;6.87;41.06;97435.25;5031775;28;20450;-70
2021/04/08 09:25:00;;;;;;;11.60;5.30;;;;;;;5.83;40.82;97440.66;5023998;28;20510;-68
2021/04/08 09:27:25;;;;;;;9.60;4.53;;;;;;;5.93;41.71;97445.94;5032170;28;20414;-70
2021/04/08 09:29:58;;;;;;;7.10;4.60;;;;;;;6.25;42.50;97450.50;5023418;28;20917;-70
2021/04/08 09:32:30;;;;;;;6.47;4.20;;;;;;;5.97;41.55;97449.97;5011423;28;20266;-68
2021/04/08 09:35:17;;;;;;;6.83;4.30;;;;;;;5.96;41.97;97450.13;5021733;28;20415;-70
2021/04/08 09:37:46;;;;;;;7.83;5.10;;;;;;;6.23;42.38;97451.56;5023998;28;20418;-70
2021/04/08 09:40:25;;;;;;;5.73;4.43;;;;;;;5.34;43.92;97452.13;5027799;28;20423;-69
2021/04/08 09:42:56;;;;;;;10.17;4.90;;;;;;;5.64;43.54;97450.75;5021866;28;20443;-72
2021/04/08 09:45:23;;;;;;;17.37;4.70;;;;;;;5.60;43.28;97449.34;5004018;28;20791;-70
2021/04/08 09:48:08;;;;;;;13.40;4.20;;;;;;;6.19;41.58;97447.53;5028182;28;20481;-70
2021/04/08 09:50:56;;;;;;;11.07;4.20;;;;;;;6.21;42.27;97438.66;5029011;28;20449;-71
2021/04/08 09:53:42;;;;;;;6.10;4.13;;;;;;;6.27;42.04;97437.34;5019282;28;20473;-71
2021/04/08 09:56:08;;;;;;;7.37;4.40;;;;;;;6.57;41.43;97438.50;5025898;28;20484;-71
2021/04/08 09:58:36;;;;;;;11.90;4.93;;;;;;;6.69;41.13;97437.53;5034626;28;20422;-70
2021/04/08 10:01:09;;;;;;;8.47;5.70;;;;;;;6.91;40.52;97433.22;5020480;28;20508;-70
2021/04/08 10:03:39;;;;;;;8.57;4.60;;;;;;;6.74;41.31;97437.16;5035678;28;20964;-69
2021/04/08 10:06:15;;;;;;;8.70;4.77;;;;;;;6.64;41.10;97434.47;5036036;28;20787;-70
2021/04/08 10:08:41;;;;;;;11.93;5.50;;;;;;;6.48;41.03;97440.06;5050772;28;20469;-71
2021/04/08 10:11:07;;;;;;;6.33;4.00;;;;;;;5.75;43.86;97437.78;5034857;28;20785;-71
2021/04/08 10:13:34;;;;;;;5.70;4.00;;;;;;;6.36;42.95;97431.44;5050836;28;20203;-70
2021/04/08 10:16:06;;;;;;;8.43;4.43;;;;;;;6.49;42.32;97439.13;5035524;28;20184;-70
2021/04/08 10:18:33;;;;;;;8.30;4.37;;;;;;;6.19;42.72;97444.94;5029432;28;20461;-71
2021/04/08 10:21:03;;;;;;;8.20;4.40;;;;;;;6.50;41.86;97430.34;5050891;28;20426;-70
2021/04/08 10:23:36;;;;;;;6.57;4.10;;;;;;;6.97;41.42;97424.06;5017930;28;20492;-71
2021/04/08 10:26:24;;;;;;;6.93;4.10;;;;;;;7.13;41.25;97429.69;5035549;28;20426;-69
2021/04/08 10:28:55;;;;;;;12.17;5.20;;;;;;;7.06;41.18;97433.72;5035133;28;20516;-71
2021/04/08 10:31:29;;;;;;;11.53;4.63;;;;;;;7.09;40.92;97436.09;5010431;28;20439;-70
2021/04/08 10:34:05;;;;;;;10.47;4.40;;;;;;;7.12;40.62;97440.25;5026896;28;20823;-70
2021/04/08 10:36:33;;;;;;;12.80;4.27;;;;;;;7.49;40.38;97430.22;5034061;28;20506;-69
2021/04/08 10:39:15;;;;;;;8.33;4.97;;;;;;;7.42;39.60;97428.25;5034773;28;20450;-71
2021/04/08 10:42:09;;;;;;;9.70;4.63;;;;;;;8.09;42.31;97431.38;5023205;28;20459;-68
2021/04/08 10:44:37;;;;;;;6.87;4.93;;;;;;;8.52;39.37;97416.41;5008873;28;20419;-67
2021/04/08 10:47:09;;;;;;;6.13;4.43;;;;;;;9.11;36.19;97412.09;5017430;28;20538;-68
2021/04/08 10:49:38;;;;;;;7.80;4.40;;;;;;;9.59;35.52;97414.78;5024144;28;20477;-67
2021/04/08 10:52:09;;;;;;;5.27;3.10;;;;;;;10.51;37.00;97396.69;5034395;28;20438;-66
2021/04/08 10:54:36;;;;;;;8.40;5.00;;;;;;;8.64;36.55;97409.28;5033049;28;20418;-66
2021/04/08 10:57:03;;;;;;;9.37;4.93;;;;;;;9.21;35.68;97399.81;5034790;28;20411;-67
2021/04/08 10:59:29;;;;;;;15.83;7.00;;;;;;;9.96;36.80;97395.66;5026566;28;20416;-66
2021/04/08 11:01:56;;;;;;;6.63;3.57;;;;;;;10.62;34.48;97406.13;5025380;28;20821;-66
2021/04/08 11:04:22;;;;;;;9.50;4.20;;;;;;;11.26;34.03;97404.28;5034217;28;20933;-67
2021/04/08 11:06:49;;;;;;;4.43;3.93;;;;;;;10.01;33.51;97397.84;5031354;28;20414;-68
2021/04/08 11:09:28;;;;;;;4.40;3.60;;;;;;;10.58;32.72;97400.34;5171037;22;20533;-66
2021/04/08 11:11:55;;;;;;;5.57;3.87;;;;;;;10.20;32.50;97403.03;5034368;28;20962;-67
2021/04/08 11:14:25;;;;;;;8.93;3.67;;;;;;;8.53;34.33;97412.84;4993689;28;20520;-68
2021/04/08 11:16:53;;;;;;;8.03;3.97;;;;;;;10.20;33.05;97407.41;5026928;28;20523;-67
2021/04/08 11:19:19;;;;;;;9.17;4.13;;;;;;;9.68;33.35;97409.53;5028187;28;20508;-66
2021/04/08 11:21:46;;;;;;;9.67;4.40;;;;;;;9.31;33.54;97402.44;5016555;28;20439;-68
2021/04/08 11:24:12;;;;;;;7.37;4.40;;;;;;;10.58;33.62;97401.19;5015804;28;20476;-66
2021/04/08 11:26:51;;;;;;;5.43;4.10;;;;;;;9.75;32.67;97398.50;5016316;28;20484;-68
2021/04/08 11:29:27;;;;;;;5.67;4.10;;;;;;;9.21;33.73;97402.44;5030873;28;20461;-68
2021/04/08 11:32:12;;;;;;;7.67;3.90;;;;;;;9.59;34.63;97407.75;5029850;28;20868;-67
2021/04/08 11:34:42;;;;;;;12.83;4.40;;;;;;;10.30;39.66;97395.94;5031176;28;20921;-66
2021/04/08 11:37:07;;;;;;;5.77;4.37;;;;;;;9.90;36.82;97393.59;5026739;28;20419;-66
2021/04/08 11:39:33;;;;;;;4.70;4.07;;;;;;;11.37;33.78;97395.31;5031806;28;20998;-66
2021/04/08 11:42:16;;;;;;;10.00;4.40;;;;;;;9.32;33.39;97398.88;5022599;28;20200;-66
2021/04/08 11:44:42;;;;;;;9.40;3.60;;;;;;;8.73;35.67;97398.84;5028816;28;20635;-67